createdAt,value
2019-05-29T00:01:55.981Z,0
2019-05-29T00:04:36.491Z,0
2019-05-29T00:08:56.079Z,0
2019-05-29T00:11:36.533Z,0
2019-05-29T00:12:21.525Z,0
2019-05-29T00:16:08.679Z,0
2019-05-29T00:17:47.189Z,0
2019-05-29T00:19:56.171Z,0
2019-05-29T00:22:36.650Z,0
2019-05-29T00:24:47.242Z,0
2019-05-29T00:26:56.621Z,0
2019-05-29T00:29:07.332Z,0
2019-05-29T00:30:45.968Z,0
2019-05-29T00:32:55.841Z,0
2019-05-29T00:35:36.425Z,0
2019-05-29T00:37:17.114Z,0
2019-05-29T00:42:07.302Z,0
2019-05-29T00:44:35.314Z,0
2019-05-29T00:45:09.874Z,0
2019-05-29T00:46:47.011Z,0
2019-05-29T00:51:35.845Z,0
2019-05-29T00:53:16.782Z,0
2019-05-29T00:55:57.228Z,0
2019-05-29T01:00:17.838Z,0
2019-05-29T01:02:26.206Z,0
2019-05-29T01:05:06.767Z,0
2019-05-29T01:07:18.726Z,0
2019-05-29T01:09:27.060Z,0
2019-05-29T01:15:56.117Z,0
2019-05-29T01:18:36.590Z,0
2019-05-29T01:20:46.523Z,0
2019-05-29T01:22:56.792Z,0
2019-05-29T01:25:37.369Z,0
2019-05-29T01:29:26.030Z,0
2019-05-29T01:32:06.519Z,0
2019-05-29T01:34:16.106Z,0
2019-05-29T01:36:26.650Z,0
2019-05-29T01:39:07.189Z,0
2019-05-29T01:40:30.042Z,0
2019-05-29T01:42:06.197Z,0
2019-05-29T01:46:27.557Z,0
2019-05-29T01:48:36.197Z,0
2019-05-29T01:51:17.849Z,0
2019-05-29T01:52:56.355Z,0
2019-05-29T01:57:45.937Z,0
2019-05-29T01:59:26.677Z,0
2019-05-29T02:02:07.219Z,0
2019-05-29T02:04:18.232Z,0
2019-05-29T02:05:56.649Z,0
2019-05-29T02:08:05.833Z,0
2019-05-29T02:10:46.292Z,0
2019-05-29T02:12:56.987Z,0
2019-05-29T02:17:45.798Z,0
2019-05-29T02:19:56.911Z,0
2019-05-29T02:22:37.375Z,0
2019-05-29T02:26:26.928Z,0
2019-05-29T02:29:07.387Z,0
2019-05-29T02:32:28.301Z,0
2019-05-29T02:34:08.642Z,0
2019-05-29T02:36:22.193Z,0
2019-05-29T02:37:29.268Z,0
2019-05-29T02:41:46.039Z,0
2019-05-29T02:43:30.658Z,4
2019-05-29T02:45:07.062Z,4
2019-05-29T02:45:56.207Z,4
2019-05-29T02:50:15.952Z,4
2019-05-29T02:51:56.707Z,4
2019-05-29T02:53:35.921Z,8
2019-05-29T02:56:16.402Z,8
2019-05-29T02:57:57.128Z,12
2019-05-29T02:59:37.100Z,16
2019-05-29T03:03:29.388Z,24
2019-05-29T03:05:06.676Z,28
2019-05-29T03:07:47.339Z,40
2019-05-29T03:09:28.400Z,44
2019-05-29T03:11:06.495Z,52
2019-05-29T03:13:46.992Z,64
2019-05-29T03:15:29.588Z,72
2019-05-29T03:16:13.966Z,80
2019-05-29T03:16:46.027Z,80
2019-05-29T03:18:56.440Z,92
2019-05-29T03:20:37.191Z,108
2019-05-29T03:25:30.592Z,148
2019-05-29T03:26:38.191Z,156
2019-05-29T03:28:46.786Z,176
2019-05-29T03:31:48.740Z,200
2019-05-29T03:32:20.966Z,208
2019-05-29T03:33:50.152Z,220
2019-05-29T03:34:23.047Z,228
2019-05-29T03:35:48.974Z,236
2019-05-29T03:36:21.198Z,244
2019-05-29T03:37:30.122Z,256
2019-05-29T03:38:36.271Z,264
2019-05-29T03:41:16.843Z,288
2019-05-29T03:43:28.408Z,308
2019-05-29T03:44:36.273Z,324
2019-05-29T03:46:46.534Z,344
2019-05-29T03:47:18.568Z,344
2019-05-29T03:49:33.045Z,368
2019-05-29T03:50:39.182Z,376
2019-05-29T03:54:55.967Z,416
2019-05-29T03:56:36.172Z,432
2019-05-29T03:59:16.714Z,452
2019-05-29T04:01:28.914Z,468
2019-05-29T04:02:38.820Z,480
2019-05-29T04:04:47.219Z,496
2019-05-29T04:08:39.152Z,524
2019-05-29T04:12:55.891Z,556
2019-05-29T04:14:38.654Z,568
2019-05-29T04:17:01.395Z,584
2019-05-29T04:17:38.265Z,588
2019-05-29T04:19:46.673Z,600
2019-05-29T04:22:36.386Z,620
2019-05-29T04:24:46.372Z,636
2019-05-29T04:27:31.860Z,704
2019-05-29T04:28:39.750Z,724
2019-05-29T04:30:16.076Z,720
2019-05-29T04:32:56.570Z,824
2019-05-29T04:34:40.864Z,904
2019-05-29T04:36:17.132Z,940
2019-05-29T04:42:16.885Z,1068
2019-05-29T04:43:57.763Z,1140
2019-05-29T04:45:05.870Z,1204
2019-05-29T04:49:25.908Z,1548
2019-05-29T04:51:06.611Z,1688
2019-05-29T04:53:17.188Z,1828
2019-05-29T04:57:37.624Z,2084
2019-05-29T04:59:45.947Z,2224
2019-05-29T05:01:00.532Z,2308
2019-05-29T05:02:05.812Z,2384
2019-05-29T05:04:16.096Z,2536
2019-05-29T05:06:57.271Z,2696
2019-05-29T05:08:37.815Z,2780
2019-05-29T05:10:46.186Z,2892
2019-05-29T05:13:26.716Z,3012
2019-05-29T05:14:36.005Z,3056
2019-05-29T05:17:27.669Z,3152
2019-05-29T05:19:06.269Z,3196
2019-05-29T05:21:16.825Z,3256
2019-05-29T05:23:57.313Z,3316
2019-05-29T05:25:36.733Z,3344
2019-05-29T05:27:45.894Z,3372
2019-05-29T05:30:26.455Z,3416
2019-05-29T05:32:40.931Z,3456
2019-05-29T05:36:26.280Z,3528
2019-05-29T05:38:39.177Z,3564
2019-05-29T05:40:15.955Z,3584
2019-05-29T05:42:56.604Z,3616
2019-05-29T05:47:59.075Z,3684
2019-05-29T05:51:16.257Z,3720
2019-05-29T05:53:57.011Z,3752
2019-05-29T05:55:35.913Z,3760
2019-05-29T05:57:46.540Z,3768
2019-05-29T06:02:06.351Z,3800
2019-05-29T06:04:17.367Z,3812
2019-05-29T06:06:26.092Z,3828
2019-05-29T06:08:36.475Z,3848
2019-05-29T06:10:47.219Z,3840
2019-05-29T06:15:38.846Z,3884
2019-05-29T06:17:16.127Z,3896
2019-05-29T06:18:22.592Z,3924
2019-05-29T06:18:54.578Z,3932
2019-05-29T06:19:26.793Z,3932
2019-05-29T06:21:37.100Z,3932
2019-05-29T06:23:16.215Z,3960
2019-05-29T06:26:00.377Z,3988
2019-05-29T06:29:16.885Z,4020
2019-05-29T06:31:28.375Z,4036
2019-05-29T06:33:05.922Z,4072
2019-05-29T06:35:17.212Z,4100
2019-05-29T06:39:36.026Z,4184
2019-05-29T06:41:47.149Z,4216
2019-05-29T06:46:42.425Z,4252
2019-05-29T06:47:46.705Z,4284
2019-05-29T06:49:02.006Z,4308
2019-05-29T06:49:36.303Z,4328
2019-05-29T06:51:15.974Z,4372
2019-05-29T06:53:57.141Z,4424
2019-05-29T06:56:05.873Z,4476
2019-05-29T06:57:45.796Z,4528
2019-05-29T07:00:41.139Z,4612
2019-05-29T07:01:48.049Z,4636
2019-05-29T07:04:13.435Z,4692
2019-05-29T07:04:47.005Z,4704
2019-05-29T07:06:26.168Z,4748
2019-05-29T07:08:46.282Z,4780
2019-05-29T07:09:21.849Z,4784
2019-05-29T07:09:53.824Z,4792
2019-05-29T07:12:02.178Z,4860
2019-05-29T07:13:50.276Z,4940
2019-05-29T07:16:56.953Z,4960
2019-05-29T07:17:28.937Z,4968
2019-05-29T07:18:00.998Z,4984
2019-05-29T07:20:03.926Z,5028
2019-05-29T07:20:38.335Z,5040
2019-05-29T07:21:10.463Z,5052
2019-05-29T07:22:15.761Z,5072
2019-05-29T07:24:25.306Z,5080
2019-05-29T07:27:06.121Z,5124
2019-05-29T07:29:09.465Z,5204
2019-05-29T07:29:45.210Z,5212
2019-05-29T07:31:04.687Z,5272
2019-05-29T07:32:59.287Z,5444
2019-05-29T07:35:05.079Z,5540
2019-05-29T07:35:39.256Z,5572
2019-05-29T07:36:48.619Z,5600
2019-05-29T07:40:50.484Z,5824
2019-05-29T07:44:35.239Z,2944
2019-05-29T07:48:26.268Z,5676
2019-05-29T07:49:49.023Z,5772
2019-05-29T07:51:08.351Z,4664
2019-05-29T07:51:46.650Z,5592
2019-05-29T07:53:55.566Z,5332
2019-05-29T07:56:36.168Z,5308
2019-05-29T07:58:15.706Z,2732
2019-05-29T07:59:04.213Z,5428
2019-05-29T07:59:36.274Z,5280
2019-05-29T08:01:14.652Z,5276
2019-05-29T08:01:47.642Z,5180
2019-05-29T08:03:25.076Z,5056
2019-05-29T08:06:05.763Z,5012
2019-05-29T08:08:16.319Z,4892
2019-05-29T08:10:26.653Z,4980
2019-05-29T08:12:35.398Z,4800
2019-05-29T08:14:48.334Z,5004
2019-05-29T08:16:04.369Z,5076
2019-05-29T08:16:36.409Z,5052
2019-05-29T08:19:25.953Z,4964
2019-05-29T08:20:08.777Z,4968
2019-05-29T08:21:48.957Z,5008
2019-05-29T08:22:35.885Z,5068
2019-05-29T08:25:55.840Z,1796
2019-05-29T08:28:36.322Z,5208
2019-05-29T08:30:15.074Z,5228
2019-05-29T08:30:57.348Z,2332
2019-05-29T08:33:05.889Z,1948
2019-05-29T08:35:15.651Z,4308
2019-05-29T08:36:00.861Z,5152
2019-05-29T08:37:08.662Z,5040
2019-05-29T08:38:15.358Z,5208
2019-05-29T08:39:38.006Z,5332
2019-05-29T08:41:15.496Z,5280
2019-05-29T08:42:24.468Z,5332
2019-05-29T08:42:56.440Z,5384
2019-05-29T08:47:09.942Z,5732
2019-05-29T08:47:43.927Z,5708
2019-05-29T08:48:15.960Z,5720
2019-05-29T08:50:14.612Z,5616
2019-05-29T08:50:52.384Z,5464
2019-05-29T08:52:13.512Z,4924
2019-05-29T08:52:47.952Z,4852
2019-05-29T08:53:55.728Z,5344
2019-05-29T08:56:36.230Z,2356
2019-05-29T08:58:46.696Z,2328
2019-05-29T09:00:25.223Z,2292
2019-05-29T09:03:05.948Z,2156
2019-05-29T09:04:45.111Z,1928
2019-05-29T09:06:14.204Z,2008
2019-05-29T09:06:48.933Z,2068
2019-05-29T09:07:55.552Z,2040
2019-05-29T09:10:36.074Z,3688
2019-05-29T09:13:05.767Z,1912
2019-05-29T09:13:37.745Z,1936
2019-05-29T09:15:21.884Z,1956
2019-05-29T09:16:26.103Z,2072
2019-05-29T09:19:06.627Z,2280
2019-05-29T09:21:04.547Z,2412
2019-05-29T09:21:36.640Z,4764
2019-05-29T09:22:08.639Z,4940
2019-05-29T09:23:17.277Z,4872
2019-05-29T09:24:55.573Z,4788
2019-05-29T09:26:26.270Z,4532
2019-05-29T09:26:58.296Z,4124
2019-05-29T09:29:06.783Z,4648
2019-05-29T09:31:21.901Z,4620
2019-05-29T09:32:53.901Z,4676
2019-05-29T09:33:25.924Z,4696
2019-05-29T09:36:06.396Z,2444
2019-05-29T09:38:18.754Z,4932
2019-05-29T09:42:05.785Z,5032
2019-05-29T09:44:01.202Z,5188
2019-05-29T09:44:41.061Z,5172
2019-05-29T09:47:27.742Z,4736
2019-05-29T09:49:36.202Z,5192
2019-05-29T09:50:51.810Z,5228
2019-05-29T09:51:58.365Z,5168
2019-05-29T09:53:05.464Z,4980
2019-05-29T09:55:46.153Z,3072
2019-05-29T09:57:59.049Z,2956
2019-05-29T10:01:26.523Z,4116
2019-05-29T10:02:09.930Z,5048
2019-05-29T10:03:46.359Z,3452
2019-05-29T10:05:59.355Z,4156
2019-05-29T10:07:05.871Z,4832
2019-05-29T10:09:46.495Z,3780
2019-05-29T10:12:07.307Z,3908
2019-05-29T10:14:15.778Z,5536
2019-05-29T10:16:02.740Z,5296
2019-05-29T10:17:14.363Z,5260
2019-05-29T10:17:46.473Z,5188
2019-05-29T10:18:33.517Z,5016
2019-05-29T10:19:06.219Z,4988
2019-05-29T10:21:46.828Z,3232
2019-05-29T10:24:01.228Z,4564
2019-05-29T10:25:07.146Z,4320
2019-05-29T10:27:15.591Z,4576
2019-05-29T10:29:10.913Z,4476
2019-05-29T10:31:26.229Z,4532
2019-05-29T10:34:07.075Z,4640
2019-05-29T10:36:55.917Z,4788
2019-05-29T10:39:36.500Z,4688
2019-05-29T10:41:47.099Z,4544
2019-05-29T10:43:36.015Z,4496
2019-05-29T10:45:49.791Z,4512
2019-05-29T10:46:57.563Z,4484
2019-05-29T10:49:06.371Z,4404
2019-05-29T10:50:54.092Z,4456
2019-05-29T10:51:26.271Z,4488
2019-05-29T10:52:18.145Z,4560
2019-05-29T10:54:00.202Z,4632
2019-05-29T10:55:36.662Z,4724
2019-05-29T10:57:48.814Z,4964
2019-05-29T10:59:00.878Z,5232
2019-05-29T11:01:47.585Z,5284
2019-05-29T11:02:58.457Z,5616
2019-05-29T11:05:06.865Z,4136
2019-05-29T11:09:26.686Z,3488
2019-05-29T11:18:06.734Z,3188
2019-05-29T11:22:26.803Z,3448
2019-05-29T11:22:59.120Z,3516
2019-05-29T11:24:35.460Z,6064
2019-05-29T11:25:28.411Z,6176
2019-05-29T11:27:36.866Z,6180
2019-05-29T11:31:59.815Z,6380
2019-05-29T11:33:36.342Z,6412
2019-05-29T11:36:14.217Z,4192
2019-05-29T11:36:46.305Z,2944
2019-05-29T11:38:25.456Z,2824
2019-05-29T11:39:06.653Z,2868
2019-05-29T11:41:27.754Z,3008
2019-05-29T11:43:36.741Z,4840
2019-05-29T11:48:05.561Z,5516
2019-05-29T11:50:21.095Z,3636
2019-05-29T11:51:26.685Z,3604
2019-05-29T11:52:43.360Z,3508
2019-05-29T11:53:15.601Z,3512
2019-05-29T11:53:47.612Z,3524
2019-05-29T11:55:08.505Z,3508
2019-05-29T11:57:17.003Z,3764
2019-05-29T11:58:32.726Z,3956
2019-05-29T11:59:36.911Z,3540
2019-05-29T12:00:22.305Z,3644
2019-05-29T12:00:55.548Z,3640
2019-05-29T12:02:36.285Z,4324
2019-05-29T12:04:27.188Z,3488
2019-05-29T12:05:04.793Z,3480
2019-05-29T12:05:36.796Z,3464
2019-05-29T12:06:09.339Z,3496
2019-05-29T12:09:35.756Z,3536
2019-05-29T12:10:09.095Z,3556
2019-05-29T12:12:49.748Z,3848
2019-05-29T12:14:00.334Z,8288
2019-05-29T12:15:19.328Z,3780
2019-05-29T12:17:03.126Z,5584
2019-05-29T12:18:25.451Z,8992
2019-05-29T12:18:59.803Z,9004
2019-05-29T12:20:29.388Z,9012
2019-05-29T12:21:03.862Z,9104
2019-05-29T12:22:08.078Z,9164
2019-05-29T12:23:28.018Z,9284
2019-05-29T12:26:24.188Z,9584
2019-05-29T12:27:29.396Z,9776
2019-05-29T12:29:13.135Z,10024
2019-05-29T12:30:49.472Z,10340
2019-05-29T12:34:20.321Z,10904
2019-05-29T12:35:01.103Z,11000
2019-05-29T12:37:09.823Z,11352
2019-05-29T12:39:18.343Z,11748
2019-05-29T12:41:28.234Z,12224
2019-05-29T12:43:39.080Z,6532
2019-05-29T12:46:19.657Z,13892
2019-05-29T12:48:04.001Z,14320
2019-05-29T12:49:09.280Z,5780
2019-05-29T12:52:58.096Z,14512
2019-05-29T12:54:38.637Z,11488
2019-05-29T12:57:19.641Z,15580
2019-05-29T12:58:28.569Z,16940
2019-05-29T13:00:09.309Z,17696
2019-05-29T13:04:29.171Z,13096
2019-05-29T13:05:21.510Z,16156
2019-05-29T13:07:02.481Z,15416
2019-05-29T13:08:38.945Z,21376
2019-05-29T13:10:32.190Z,21664
2019-05-29T13:15:59.201Z,23968
2019-05-29T13:17:38.112Z,25408
2019-05-29T13:21:29.258Z,26880
2019-05-29T13:22:38.852Z,27616
2019-05-29T13:24:18.902Z,28000
2019-05-29T13:25:59.800Z,28768
2019-05-29T13:27:38.952Z,29696
2019-05-29T13:30:19.590Z,30848
2019-05-29T13:32:04.011Z,31456
2019-05-29T13:33:10.544Z,31488
2019-05-29T13:35:23.514Z,31744
2019-05-29T13:35:58.403Z,31648
2019-05-29T13:37:10.456Z,31808
2019-05-29T13:39:19.016Z,32384
2019-05-29T13:41:28.820Z,33504
2019-05-29T13:42:12.932Z,33472
2019-05-29T13:43:49.627Z,33664
2019-05-29T13:46:00.876Z,33632
2019-05-29T13:47:08.787Z,33536
2019-05-29T13:49:49.393Z,33408
2019-05-29T13:51:59.593Z,33824
2019-05-29T13:53:38.408Z,34048
2019-05-29T13:54:19.149Z,34176
2019-05-29T13:57:41.240Z,33952
2019-05-29T13:59:49.672Z,33024
2019-05-29T14:00:37.108Z,33152
2019-05-29T14:01:09.613Z,32480
2019-05-29T14:03:18.096Z,13204
2019-05-29T14:05:28.319Z,8612
2019-05-29T14:09:18.687Z,32032
2019-05-29T14:12:02.931Z,30272
2019-05-29T14:13:09.830Z,29184
2019-05-29T14:15:19.263Z,22592
2019-05-29T14:19:09.335Z,4344
2019-05-29T14:21:18.566Z,4476
2019-05-29T14:24:01.541Z,5040
2019-05-29T14:27:18.559Z,12520
2019-05-29T14:29:59.093Z,26080
2019-05-29T14:32:10.453Z,25600
2019-05-29T14:33:48.598Z,23520
2019-05-29T14:36:29.209Z,23008
2019-05-29T14:37:09.707Z,22752
2019-05-29T14:38:48.473Z,22304
2019-05-29T14:41:29.067Z,6308
2019-05-29T14:43:16.146Z,7224
2019-05-29T14:43:48.232Z,5804
2019-05-29T14:46:28.821Z,4344
2019-05-29T14:48:10.104Z,4412
2019-05-29T14:50:19.063Z,18688
2019-05-29T14:52:59.697Z,6284
2019-05-29T14:54:43.784Z,33312
2019-05-29T14:55:19.450Z,50880
2019-05-29T14:57:28.306Z,5164
2019-05-29T14:59:10.976Z,3604
2019-05-29T15:00:26.757Z,3272
2019-05-29T15:00:58.831Z,3236
2019-05-29T15:02:24.488Z,3196
2019-05-29T15:03:28.825Z,3420
2019-05-29T15:05:38.541Z,3644
2019-05-29T15:07:48.514Z,3216
2019-05-29T15:10:29.320Z,3752
2019-05-29T15:12:39.031Z,4052
2019-05-29T15:13:48.121Z,4016
2019-05-29T15:16:28.685Z,5580
2019-05-29T15:22:28.438Z,4396
2019-05-29T15:25:08.234Z,5584
2019-05-29T15:25:54.327Z,4152
2019-05-29T15:26:58.438Z,4052
2019-05-29T15:29:08.453Z,4048
2019-05-29T15:30:24.504Z,4096
2019-05-29T15:31:28.753Z,8392
2019-05-29T15:33:38.773Z,7384
2019-05-29T15:35:21.152Z,6644
2019-05-29T15:37:29.714Z,5796
2019-05-29T15:39:39.398Z,5116
2019-05-29T15:41:18.159Z,4824
2019-05-29T15:43:58.737Z,4704
2019-05-29T15:46:15.918Z,4004
2019-05-29T15:46:48.518Z,4520
2019-05-29T15:49:29.169Z,4388
2019-05-29T15:55:35.873Z,3212
2019-05-29T15:56:28.907Z,3308
2019-05-29T15:57:00.933Z,3332
2019-05-29T15:59:16.557Z,3684
2019-05-29T15:59:49.184Z,3652
2019-05-29T16:04:38.198Z,3556
2019-05-29T16:06:18.842Z,3636
2019-05-29T16:08:59.437Z,3708
2019-05-29T16:11:12.492Z,3756
2019-05-29T16:12:19.518Z,3660
2019-05-29T16:17:10.911Z,3244
2019-05-29T16:18:30.463Z,3124
2019-05-29T16:20:38.864Z,3032
2019-05-29T16:22:19.354Z,2944
2019-05-29T16:23:36.990Z,2852
2019-05-29T16:24:09.041Z,2816
2019-05-29T16:26:22.260Z,2800
2019-05-29T16:27:12.558Z,2848
2019-05-29T16:28:19.738Z,2844
2019-05-29T16:30:28.328Z,2672
2019-05-29T16:33:08.892Z,2348
2019-05-29T16:34:20.272Z,2244
2019-05-29T16:38:38.388Z,2128
2019-05-29T16:40:20.387Z,2104
2019-05-29T16:42:28.790Z,2084
2019-05-29T16:44:38.155Z,2052
2019-05-29T16:46:24.854Z,1988
2019-05-29T16:47:29.036Z,1968
2019-05-29T16:50:09.636Z,1984
2019-05-29T16:52:21.232Z,1936
2019-05-29T16:54:29.666Z,1852
2019-05-29T16:56:38.654Z,1792
2019-05-29T16:59:30.656Z,1680
2019-05-29T17:01:39.325Z,1560
2019-05-29T17:03:18.086Z,1600
2019-05-29T17:04:59.528Z,1628
2019-05-29T17:09:20.198Z,1680
2019-05-29T17:13:38.613Z,1564
2019-05-29T17:15:20.479Z,1540
2019-05-29T17:19:08.224Z,1460
2019-05-29T17:21:18.981Z,1416
2019-05-29T17:23:29.548Z,1380
2019-05-29T17:27:19.051Z,1320
2019-05-29T17:28:29.171Z,1300
2019-05-29T17:33:21.647Z,1228
2019-05-29T17:34:58.707Z,1208
2019-05-29T17:37:39.378Z,1180
2019-05-29T17:40:58.472Z,1140
2019-05-29T17:43:39.036Z,1112
2019-05-29T17:45:27.530Z,1092
2019-05-29T17:45:59.594Z,1088
2019-05-29T17:48:08.301Z,1068
2019-05-29T17:50:26.913Z,1048
2019-05-29T17:50:58.959Z,1044
2019-05-29T17:53:39.490Z,1020
2019-05-29T17:55:26.455Z,1004
2019-05-29T17:55:58.586Z,1000
2019-05-29T17:59:20.503Z,964
2019-05-29T18:00:59.594Z,944
2019-05-29T18:02:53.700Z,924
2019-05-29T18:03:58.911Z,912
2019-05-29T18:05:38.113Z,892
2019-05-29T18:08:21.121Z,864
2019-05-29T18:09:30.141Z,852
2019-05-29T18:11:38.514Z,832
2019-05-29T18:14:21.532Z,804
2019-05-29T18:15:28.231Z,796
2019-05-29T18:18:08.845Z,768
2019-05-29T18:20:21.566Z,748
2019-05-29T18:21:28.200Z,740
2019-05-29T18:24:08.741Z,716
2019-05-29T18:26:18.372Z,696
2019-05-29T18:28:29.562Z,676
2019-05-29T18:30:38.499Z,656
2019-05-29T18:33:20.979Z,628
2019-05-29T18:39:18.459Z,572
2019-05-29T18:41:29.791Z,552
2019-05-29T18:43:38.629Z,532
2019-05-29T18:45:29.343Z,512
2019-05-29T18:46:39.133Z,500
2019-05-29T18:49:22.152Z,472
2019-05-29T18:52:38.402Z,440
2019-05-29T18:55:18.941Z,412
2019-05-29T18:57:16.996Z,388
2019-05-29T18:57:49.010Z,384
2019-05-29T18:59:29.887Z,368
2019-05-29T19:01:38.379Z,340
2019-05-29T19:04:18.996Z,312
2019-05-29T19:06:30.157Z,280
2019-05-29T19:08:38.682Z,252
2019-05-29T19:11:19.228Z,224
2019-05-29T19:13:30.421Z,204
2019-05-29T19:15:38.906Z,188
2019-05-29T19:18:19.453Z,164
2019-05-29T19:20:32.431Z,144
2019-05-29T19:22:08.884Z,132
2019-05-29T19:24:49.406Z,112
2019-05-29T19:26:59.233Z,96
2019-05-29T19:27:43.304Z,92
2019-05-29T19:29:19.617Z,80
2019-05-29T19:31:31.711Z,72
2019-05-29T19:35:48.598Z,52
2019-05-29T19:37:58.211Z,40
2019-05-29T19:40:08.660Z,36
2019-05-29T19:42:49.209Z,28
2019-05-29T19:44:58.821Z,24
2019-05-29T19:46:55.206Z,20
2019-05-29T19:47:28.969Z,16
2019-05-29T19:51:49.281Z,12
2019-05-29T19:53:29.972Z,8
2019-05-29T19:55:08.280Z,8
2019-05-29T19:57:57.739Z,8
2019-05-29T20:00:09.645Z,4
2019-05-29T20:01:36.058Z,4
2019-05-29T20:02:12.198Z,4
2019-05-29T20:03:48.527Z,4
2019-05-29T20:06:31.327Z,0
2019-05-29T20:10:18.464Z,0
2019-05-29T20:12:29.267Z,0
2019-05-29T20:14:09.031Z,0
2019-05-29T20:16:49.600Z,0
2019-05-29T20:19:41.416Z,0
2019-05-29T20:23:58.222Z,0
2019-05-29T20:26:09.504Z,0
2019-05-29T20:28:18.987Z,0
2019-05-29T20:30:59.567Z,0
2019-05-29T20:32:39.494Z,0
2019-05-29T20:34:48.327Z,0
2019-05-29T20:37:29.957Z,0
2019-05-29T20:41:48.363Z,0
2019-05-29T20:44:30.463Z,0
2019-05-29T20:48:48.546Z,0
2019-05-29T20:51:29.095Z,0
2019-05-29T20:55:19.100Z,0
2019-05-29T20:57:59.717Z,0
2019-05-29T20:59:42.022Z,0
2019-05-29T21:01:18.476Z,0
2019-05-29T21:03:59.024Z,0
2019-05-29T21:06:09.092Z,0
2019-05-29T21:08:19.490Z,0
2019-05-29T21:14:18.487Z,0
2019-05-29T21:16:59.094Z,0
2019-05-29T21:19:08.713Z,0
2019-05-29T21:21:19.140Z,0
2019-05-29T21:23:59.716Z,0
2019-05-29T21:25:19.638Z,0
2019-05-29T21:28:51.153Z,0
2019-05-29T21:30:59.500Z,0
2019-05-29T21:32:40.016Z,0
2019-05-29T21:33:50.312Z,0
2019-05-29T21:35:58.743Z,0
2019-05-29T21:38:08.702Z,0
2019-05-29T21:42:28.594Z,0
2019-05-29T21:44:39.056Z,0
2019-05-29T21:48:58.309Z,0
2019-05-29T21:50:39.536Z,0
2019-05-29T21:52:18.277Z,0
2019-05-29T21:54:58.806Z,0
2019-05-29T21:57:50.700Z,0
2019-05-29T21:59:05.104Z,0
2019-05-29T21:59:39.586Z,0
2019-05-29T22:01:18.827Z,0
2019-05-29T22:03:59.360Z,0
2019-05-29T22:08:19.470Z,0
2019-05-29T22:10:29.499Z,0
2019-05-29T22:12:39.284Z,0
2019-05-29T22:16:59.584Z,0
2019-05-29T22:21:48.656Z,0
2019-05-29T22:25:38.060Z,0
2019-05-29T22:28:18.721Z,0
2019-05-29T22:32:39.483Z,0
2019-05-29T22:35:19.715Z,0
2019-05-29T22:36:28.561Z,0
2019-05-29T22:38:38.379Z,0
2019-05-29T22:41:18.689Z,0
2019-05-29T22:45:08.135Z,0
2019-05-29T22:47:48.450Z,0
2019-05-29T22:50:00.340Z,0
2019-05-29T22:52:08.802Z,0
2019-05-29T22:54:49.440Z,0
2019-05-29T22:56:28.240Z,0
2019-05-29T22:58:38.936Z,0
2019-05-29T23:01:19.460Z,0
2019-05-29T23:02:58.478Z,0
2019-05-29T23:07:48.520Z,0
2019-05-29T23:10:01.015Z,0
2019-05-29T23:12:09.391Z,0
2019-05-29T23:17:01.017Z,0
2019-05-29T23:19:09.412Z,0
2019-05-29T23:22:58.992Z,0
2019-05-29T23:25:08.441Z,0
2019-05-29T23:27:48.971Z,0
2019-05-29T23:30:01.502Z,0
2019-05-29T23:34:18.313Z,0
2019-05-29T23:41:18.496Z,0
2019-05-29T23:43:28.332Z,0
2019-05-29T23:45:38.325Z,0
2019-05-29T23:48:18.844Z,0
2019-05-29T23:50:28.467Z,0
2019-05-29T23:52:38.506Z,0
2019-05-29T23:55:18.995Z,0
2019-05-29T23:57:28.756Z,0
2019-05-29T23:59:38.797Z,0
